createdAt,value
2023-05-22T00:00:35.682Z,10.00
2023-05-22T00:03:02.338Z,10.00
2023-05-22T00:08:27.964Z,9.20
2023-05-22T00:10:56.692Z,11.67
2023-05-22T00:13:23.253Z,9.00
2023-05-22T00:15:50.509Z,12.00
2023-05-22T00:18:16.981Z,8.00
2023-05-22T00:23:30.124Z,11.60
2023-05-22T00:25:58.485Z,10.80
2023-05-22T00:28:24.979Z,10.00
2023-05-22T00:30:51.415Z,8.00
2023-05-22T00:33:18.726Z,11.00
2023-05-22T00:38:30.066Z,9.00
2023-05-22T00:40:56.492Z,8.00
2023-05-22T00:43:23.880Z,11.33
2023-05-22T00:45:52.226Z,10.00
2023-05-22T00:48:18.656Z,9.50
2023-05-22T00:53:31.617Z,9.00
2023-05-22T00:55:58.102Z,11.00
2023-05-22T00:58:24.635Z,9.50
2023-05-22T01:00:53.851Z,6.67
2023-05-22T01:03:21.292Z,11.67
2023-05-22T01:08:34.685Z,9.67
2023-05-22T01:11:01.993Z,11.67
2023-05-22T01:13:28.446Z,9.00
2023-05-22T01:15:55.825Z,12.67
2023-05-22T01:18:22.395Z,11.00
2023-05-22T01:23:35.251Z,11.33
2023-05-22T01:26:01.709Z,11.00
2023-05-22T01:28:28.238Z,10.00
2023-05-22T01:30:54.698Z,12.50
2023-05-22T01:33:21.276Z,10.50
2023-05-22T01:38:31.597Z,11.00
2023-05-22T01:40:58.067Z,10.00
2023-05-22T01:43:25.384Z,11.00
2023-05-22T01:45:52.767Z,9.00
2023-05-22T01:48:20.103Z,11.33
2023-05-22T01:53:32.615Z,11.00
2023-05-22T01:55:59.087Z,9.00
2023-05-22T01:58:27.444Z,10.80
2023-05-22T02:00:53.980Z,10.00
2023-05-22T02:03:20.666Z,9.00
2023-05-22T02:08:32.496Z,11.00
2023-05-22T02:10:59.787Z,10.00
2023-05-22T02:13:28.170Z,10.00
2023-05-22T02:15:54.752Z,10.00
2023-05-22T02:18:21.285Z,10.00
2023-05-22T02:20:48.575Z,10.00
2023-05-22T02:23:15.116Z,12.00
2023-05-22T02:25:41.647Z,11.00
2023-05-22T02:28:08.126Z,12.00
2023-05-22T02:30:34.599Z,10.00
2023-05-22T02:33:01.186Z,9.00
2023-05-22T02:35:27.724Z,12.00
2023-05-22T02:37:54.180Z,11.00
2023-05-22T02:40:20.648Z,11.00
2023-05-22T02:42:47.115Z,11.00
2023-05-22T02:45:13.567Z,12.00
2023-05-22T02:47:40.087Z,11.00
2023-05-22T02:50:06.623Z,12.00
2023-05-22T02:52:33.133Z,12.00
2023-05-22T02:54:59.651Z,11.00
2023-05-22T02:57:26.922Z,11.00
2023-05-22T02:59:54.228Z,10.67
2023-05-22T03:02:20.736Z,13.50
2023-05-22T03:04:47.208Z,12.00
2023-05-22T03:07:13.665Z,13.00
2023-05-22T03:09:40.170Z,14.00
2023-05-22T03:12:06.672Z,13.00
2023-05-22T03:14:34.066Z,14.33
2023-05-22T03:17:01.469Z,14.00
2023-05-22T03:19:27.995Z,14.50
2023-05-22T03:21:54.546Z,15.00
2023-05-22T03:24:21.985Z,13.67
2023-05-22T03:26:49.415Z,14.00
2023-05-22T03:29:16.860Z,14.00
2023-05-22T03:31:43.416Z,13.50
2023-05-22T03:34:09.930Z,14.00
2023-05-22T03:36:37.269Z,12.67
2023-05-22T03:41:48.601Z,11.50
2023-05-22T03:44:15.112Z,13.00
2023-05-22T03:46:41.565Z,11.50
2023-05-22T03:49:08.072Z,13.00
2023-05-22T03:51:34.545Z,12.00
2023-05-22T03:56:44.814Z,13.00
2023-05-22T03:59:11.301Z,11.50
2023-05-22T04:01:37.756Z,12.00
2023-05-22T04:04:05.131Z,10.67
2023-05-22T04:06:32.524Z,11.67
2023-05-22T04:11:52.497Z,14.00
2023-05-22T04:14:20.837Z,9.20
2023-05-22T04:16:50.348Z,10.67
2023-05-22T04:19:17.205Z,13.00
2023-05-22T04:21:43.680Z,10.00
2023-05-22T04:26:54.302Z,13.00
2023-05-22T04:29:20.791Z,13.00
2023-05-22T04:31:48.191Z,12.67
2023-05-22T04:34:14.702Z,11.00
2023-05-22T04:36:42.072Z,12.67
2023-05-22T04:42:03.516Z,11.33
2023-05-22T04:44:29.989Z,10.50
2023-05-22T04:46:56.842Z,22.00
2023-05-22T04:49:24.276Z,15.67
2023-05-22T04:51:50.783Z,16.50
2023-05-22T04:57:03.027Z,12.67
2023-05-22T04:59:30.419Z,12.00
2023-05-22T05:01:56.911Z,11.00
2023-05-22T05:04:24.212Z,10.00
2023-05-22T05:06:52.551Z,10.60
2023-05-22T05:12:03.241Z,20.00
2023-05-22T05:14:30.682Z,14.67
2023-05-22T05:16:57.260Z,19.00
2023-05-22T05:19:23.827Z,14.00
2023-05-22T05:21:51.300Z,16.33
2023-05-22T05:27:03.606Z,18.00
2023-05-22T05:29:31.064Z,22.00
2023-05-22T05:31:57.582Z,16.50
2023-05-22T05:34:25.023Z,19.50
2023-05-22T05:36:51.520Z,19.00
2023-05-22T05:42:02.880Z,14.00
2023-05-22T05:44:29.387Z,19.00
2023-05-22T05:46:55.907Z,20.00
2023-05-22T05:49:23.650Z,15.67
2023-05-22T05:51:51.065Z,13.00
2023-05-22T05:54:18.754Z,14.00
2023-05-22T05:56:46.311Z,15.67
2023-05-22T05:59:13.069Z,19.00
2023-05-22T06:01:39.873Z,14.00
2023-05-22T06:04:06.577Z,13.00
2023-05-22T06:06:33.981Z,14.00
2023-05-22T06:09:00.440Z,9.50
2023-05-22T06:11:27.808Z,12.00
2023-05-22T06:13:55.090Z,11.00
2023-05-22T06:16:22.414Z,12.00
2023-05-22T06:18:50.849Z,11.60
2023-05-22T06:21:17.499Z,10.00
2023-05-22T06:23:44.059Z,9.00
2023-05-22T06:26:13.276Z,7.00
2023-05-22T06:28:39.807Z,9.50
2023-05-22T06:31:09.779Z,9.71
2023-05-22T06:33:36.402Z,21.50
2023-05-22T06:36:02.998Z,14.00
2023-05-22T06:38:29.516Z,10.50
2023-05-22T06:40:56.008Z,8.00
2023-05-22T06:43:24.360Z,8.40
2023-05-22T06:45:50.818Z,7.00
2023-05-22T06:48:17.313Z,8.00
2023-05-22T06:50:43.828Z,21.00
2023-05-22T06:53:10.322Z,14.00
2023-05-22T06:55:36.926Z,10.50
2023-05-22T06:58:03.570Z,8.00
2023-05-22T07:00:30.083Z,22.50
2023-05-22T07:02:57.575Z,16.67
2023-05-22T07:05:25.134Z,13.33
2023-05-22T07:07:51.615Z,12.00
2023-05-22T07:10:18.090Z,6.00
2023-05-22T07:15:30.526Z,8.80
2023-05-22T07:17:57.140Z,10.00
2023-05-22T07:20:24.482Z,7.00
2023-05-22T07:22:51.813Z,6.75
2023-05-22T07:25:19.070Z,5.75
2023-05-22T07:30:29.403Z,4.33
2023-05-22T07:32:55.825Z,5.00
2023-05-22T07:35:22.228Z,4.00
2023-05-22T07:37:48.594Z,5.00
2023-05-22T07:40:15.848Z,5.00
2023-05-22T07:45:27.359Z,15.67
2023-05-22T07:47:55.645Z,13.00
2023-05-22T07:50:22.926Z,11.00
2023-05-22T07:52:49.441Z,18.00
2023-05-22T07:55:16.879Z,14.67
2023-05-22T08:00:29.833Z,9.60
2023-05-22T08:02:56.370Z,8.00
2023-05-22T08:05:23.804Z,7.00
2023-05-22T08:07:50.394Z,12.00
2023-05-22T08:10:16.937Z,11.00
2023-05-22T08:15:27.499Z,6.50
2023-05-22T08:17:54.867Z,8.75
2023-05-22T08:20:21.494Z,14.00
2023-05-22T08:22:49.834Z,8.00
2023-05-22T08:25:19.116Z,6.17
2023-05-22T08:30:29.578Z,6.33
2023-05-22T08:32:56.129Z,7.00
2023-05-22T08:35:23.440Z,7.00
2023-05-22T08:37:50.733Z,7.00
2023-05-22T08:40:17.992Z,6.00
2023-05-22T08:45:28.434Z,4.00
2023-05-22T08:47:55.741Z,4.50
2023-05-22T08:50:22.243Z,9.50
2023-05-22T08:52:48.642Z,5.33
2023-05-22T08:55:15.919Z,4.00
2023-05-22T08:57:42.325Z,4.00
2023-05-22T09:00:08.725Z,4.00
2023-05-22T09:02:35.179Z,6.00
2023-05-22T09:05:01.608Z,5.33
2023-05-22T09:07:28.072Z,4.00
2023-05-22T09:09:54.472Z,4.00
2023-05-22T09:12:20.848Z,5.00
2023-05-22T09:14:47.217Z,3.67
2023-05-22T09:17:13.659Z,4.00
2023-05-22T09:19:40.418Z,4.00
2023-05-22T09:22:06.942Z,5.00
2023-05-22T09:24:33.303Z,5.00
2023-05-22T09:26:59.710Z,3.67
2023-05-22T09:29:26.103Z,4.00
2023-05-22T09:31:52.523Z,4.00
2023-05-22T09:34:18.995Z,4.33
2023-05-22T09:36:46.319Z,10.33
2023-05-22T09:39:12.932Z,9.00
2023-05-22T09:41:39.395Z,7.00
2023-05-22T09:44:05.796Z,5.00
2023-05-22T09:46:32.184Z,6.00
2023-05-22T09:48:58.561Z,5.00
2023-05-22T09:51:24.934Z,4.00
2023-05-22T09:53:51.336Z,5.00
2023-05-22T09:56:24.002Z,7.00
2023-05-22T09:58:57.439Z,6.00
2023-05-22T10:01:23.833Z,2.67
2023-05-22T10:03:50.291Z,6.00
2023-05-22T10:06:17.593Z,7.00
2023-05-22T10:08:44.133Z,11.00
2023-05-22T10:11:11.392Z,8.00
2023-05-22T10:13:37.785Z,5.00
2023-05-22T10:18:48.026Z,6.33
2023-05-22T10:21:15.311Z,6.25
2023-05-22T10:23:44.569Z,9.17
2023-05-22T10:26:11.957Z,11.67
2023-05-22T10:28:38.390Z,7.00
2023-05-22T10:34:01.848Z,9.67
2023-05-22T10:36:28.342Z,8.00
2023-05-22T10:38:54.887Z,7.00
2023-05-22T10:41:21.259Z,6.00
2023-05-22T10:43:47.754Z,7.00
2023-05-22T10:49:01.121Z,6.00
2023-05-22T10:51:27.682Z,5.00
2023-05-22T10:53:54.105Z,5.00
2023-05-22T10:56:24.430Z,5.00
2023-05-22T10:58:51.783Z,5.00
2023-05-22T11:04:13.721Z,5.00
2023-05-22T11:06:40.176Z,4.00
2023-05-22T11:09:10.148Z,6.00
2023-05-22T11:11:37.413Z,5.00
2023-05-22T11:14:03.803Z,6.00
2023-05-22T11:19:23.358Z,6.00
2023-05-22T11:21:50.590Z,4.00
2023-05-22T11:24:18.352Z,5.00
2023-05-22T11:26:44.811Z,4.33
2023-05-22T11:29:12.084Z,5.00
2023-05-22T11:34:22.601Z,7.50
2023-05-22T11:36:49.018Z,6.00
2023-05-22T11:39:16.293Z,6.50
2023-05-22T11:41:42.687Z,4.33
2023-05-22T11:44:09.943Z,5.25
2023-05-22T11:49:20.073Z,4.33
2023-05-22T11:51:46.439Z,5.00
2023-05-22T11:54:12.826Z,6.00
2023-05-22T11:56:39.194Z,4.00
2023-05-22T11:59:05.697Z,2.00
2023-05-22T12:04:26.144Z,4.00
2023-05-22T12:06:52.580Z,1.67
2023-05-22T12:09:18.943Z,5.00
2023-05-22T12:11:47.262Z,8.40
2023-05-22T12:14:14.534Z,9.00
2023-05-22T12:19:25.185Z,6.00
2023-05-22T12:21:51.581Z,4.00
2023-05-22T12:24:18.840Z,4.00
2023-05-22T12:26:45.262Z,3.33
2023-05-22T12:29:11.851Z,4.00
2023-05-22T12:34:32.134Z,6.00
2023-05-22T12:36:59.428Z,9.50
2023-05-22T12:39:25.888Z,8.00
2023-05-22T12:41:53.369Z,6.00
2023-05-22T12:44:19.794Z,5.00
2023-05-22T12:49:29.990Z,4.00
2023-05-22T12:51:56.386Z,4.00
2023-05-22T12:54:22.770Z,4.67
2023-05-22T12:56:49.143Z,4.00
2023-05-22T12:59:16.393Z,5.00
2023-05-22T13:04:36.860Z,4.33
2023-05-22T13:07:03.252Z,5.00
2023-05-22T13:09:30.562Z,6.25
2023-05-22T13:11:57.109Z,9.50
2023-05-22T13:14:23.650Z,6.00
2023-05-22T13:16:50.072Z,5.00
2023-05-22T13:19:16.510Z,4.00
2023-05-22T13:21:42.973Z,4.67
2023-05-22T13:24:09.369Z,4.67
2023-05-22T13:26:35.731Z,5.00
2023-05-22T13:29:02.157Z,4.67
2023-05-22T13:31:28.541Z,4.00
2023-05-22T13:33:54.963Z,3.00
2023-05-22T13:36:21.390Z,4.67
2023-05-22T13:38:47.791Z,3.67
2023-05-22T13:41:15.035Z,4.00
2023-05-22T13:43:41.442Z,4.33
2023-05-22T13:46:07.847Z,4.00
2023-05-22T13:48:34.245Z,5.00
2023-05-22T13:51:01.516Z,4.50
2023-05-22T13:53:27.916Z,4.67
2023-05-22T13:55:54.294Z,6.00
2023-05-22T13:58:20.665Z,5.00
2023-05-22T14:00:47.107Z,5.00
2023-05-22T14:03:13.568Z,4.67
2023-05-22T14:05:40.219Z,4.00
2023-05-22T14:08:06.806Z,5.00
2023-05-22T14:10:33.173Z,5.00
2023-05-22T14:12:59.567Z,3.00
2023-05-22T14:15:25.972Z,3.00
2023-05-22T14:17:52.386Z,4.00
2023-05-22T14:20:19.047Z,4.00
2023-05-22T14:22:56.386Z,5.00
2023-05-22T14:25:23.837Z,5.00
2023-05-22T14:27:50.222Z,4.00
2023-05-22T14:30:17.486Z,4.00
2023-05-22T14:32:43.937Z,3.00
2023-05-22T14:37:54.397Z,5.33
2023-05-22T14:40:20.787Z,7.00
2023-05-22T14:42:47.263Z,10.50
2023-05-22T14:45:16.493Z,8.17
2023-05-22T14:47:43.885Z,11.67
2023-05-22T14:52:56.360Z,8.60
2023-05-22T14:55:23.667Z,7.00
2023-05-22T14:57:50.081Z,7.00
2023-05-22T15:00:16.507Z,6.00
2023-05-22T15:02:42.899Z,6.00
2023-05-22T15:07:53.040Z,5.00
2023-05-22T15:10:19.424Z,5.00
2023-05-22T15:12:45.801Z,3.00
2023-05-22T15:15:13.058Z,3.25
2023-05-22T15:17:42.421Z,8.00
2023-05-22T15:22:54.264Z,5.33
2023-05-22T15:25:21.513Z,5.00
2023-05-22T15:27:49.871Z,10.80
2023-05-22T15:30:16.340Z,8.00
2023-05-22T15:32:42.774Z,5.00
2023-05-22T15:38:03.831Z,5.67
2023-05-22T15:40:30.386Z,3.00
2023-05-22T15:42:56.751Z,3.00
2023-05-22T15:45:23.194Z,4.00
2023-05-22T15:47:49.607Z,4.00
2023-05-22T15:53:00.051Z,4.00
2023-05-22T15:55:26.464Z,3.00
2023-05-22T15:57:52.893Z,5.00
2023-05-22T16:00:19.388Z,10.50
2023-05-22T16:02:46.000Z,9.00
2023-05-22T16:07:58.995Z,5.00
2023-05-22T16:10:25.830Z,6.00
2023-05-22T16:12:52.236Z,6.33
2023-05-22T16:15:18.638Z,5.00
2023-05-22T16:17:45.136Z,4.00
2023-05-22T16:22:55.490Z,6.00
2023-05-22T16:25:21.873Z,4.00
2023-05-22T16:27:48.417Z,10.00
2023-05-22T16:30:14.852Z,7.00
2023-05-22T16:32:41.321Z,6.67
2023-05-22T16:37:51.707Z,4.33
2023-05-22T16:40:18.998Z,4.00
2023-05-22T16:42:45.377Z,6.00
2023-05-22T16:45:13.724Z,9.20
2023-05-22T16:47:41.031Z,6.50
2023-05-22T16:52:51.067Z,5.00
2023-05-22T16:55:18.312Z,4.00
2023-05-22T16:57:45.601Z,7.50
2023-05-22T17:00:12.224Z,11.50
2023-05-22T17:02:38.922Z,7.00
2023-05-22T17:05:05.401Z,4.00
2023-05-22T17:07:31.804Z,4.00
2023-05-22T17:09:58.194Z,4.00
2023-05-22T17:12:24.582Z,3.00
2023-05-22T17:14:51.122Z,4.00
2023-05-22T17:17:18.356Z,4.00
2023-05-22T17:19:44.732Z,4.00
2023-05-22T17:22:11.244Z,11.00
2023-05-22T17:24:37.750Z,5.67
2023-05-22T17:27:04.176Z,6.00
2023-05-22T17:29:30.585Z,4.00
2023-05-22T17:31:57.031Z,3.33
2023-05-22T17:34:23.430Z,5.00
2023-05-22T17:36:49.812Z,3.00
2023-05-22T17:39:16.211Z,3.67
2023-05-22T17:41:42.580Z,4.00
2023-05-22T17:44:08.984Z,4.67
2023-05-22T17:46:35.493Z,4.00
2023-05-22T17:49:02.033Z,4.33
2023-05-22T17:51:28.409Z,4.00
2023-05-22T17:53:55.765Z,9.00
2023-05-22T17:56:22.146Z,6.67
2023-05-22T17:58:48.538Z,5.00
2023-05-22T18:01:15.813Z,5.00
2023-05-22T18:03:42.365Z,4.00
2023-05-22T18:06:09.716Z,4.00
2023-05-22T18:08:36.178Z,4.00
2023-05-22T18:11:02.572Z,4.00
2023-05-22T18:13:28.963Z,4.00
2023-05-22T18:15:55.385Z,4.00
2023-05-22T18:18:21.828Z,3.00
2023-05-22T18:20:48.198Z,4.00
2023-05-22T18:25:59.445Z,3.33
2023-05-22T18:28:25.827Z,4.00
2023-05-22T18:30:52.212Z,4.00
2023-05-22T18:33:18.625Z,4.33
2023-05-22T18:35:45.003Z,3.00
2023-05-22T18:40:55.398Z,1.00
2023-05-22T18:43:21.758Z,5.00
2023-05-22T18:45:48.126Z,4.00
2023-05-22T18:48:15.466Z,4.00
2023-05-22T18:50:42.222Z,4.00
2023-05-22T18:55:53.345Z,5.00
2023-05-22T18:58:20.598Z,5.00
2023-05-22T19:00:47.018Z,5.00
2023-05-22T19:03:13.535Z,6.00
2023-05-22T19:05:39.941Z,4.33
2023-05-22T19:10:50.389Z,8.00
2023-05-22T19:13:17.641Z,5.25
2023-05-22T19:15:44.042Z,5.00
2023-05-22T19:18:11.334Z,4.75
2023-05-22T19:20:37.933Z,7.00
2023-05-22T19:25:48.942Z,6.00
2023-05-22T19:28:15.658Z,6.00
2023-05-22T19:30:43.202Z,7.25
2023-05-22T19:33:09.998Z,6.00
2023-05-22T19:35:36.477Z,6.33
2023-05-22T19:40:57.551Z,6.00
2023-05-22T19:43:24.109Z,5.33
2023-05-22T19:45:50.843Z,6.33
2023-05-22T19:48:17.268Z,7.00
2023-05-22T19:50:44.580Z,8.75
2023-05-22T19:55:57.568Z,4.50
2023-05-22T19:58:24.868Z,6.25
2023-05-22T20:00:52.105Z,5.75
2023-05-22T20:03:18.646Z,8.00
2023-05-22T20:05:45.185Z,8.00
2023-05-22T20:10:57.186Z,8.00
2023-05-22T20:13:24.621Z,12.33
2023-05-22T20:15:51.318Z,17.00
2023-05-22T20:18:17.918Z,12.50
2023-05-22T20:20:44.436Z,14.00
2023-05-22T20:25:55.933Z,13.67
2023-05-22T20:28:24.314Z,11.00
2023-05-22T20:30:51.686Z,10.67
2023-05-22T20:33:19.082Z,11.67
2023-05-22T20:35:45.873Z,10.00
2023-05-22T20:38:14.301Z,10.40
2023-05-22T20:40:41.041Z,22.00
2023-05-22T20:43:07.592Z,16.50
2023-05-22T20:45:34.943Z,15.00
2023-05-22T20:48:01.537Z,11.00
2023-05-22T20:50:28.091Z,11.00
2023-05-22T20:52:54.610Z,20.00
2023-05-22T20:55:21.101Z,16.00
2023-05-22T20:57:49.438Z,10.40
2023-05-22T21:00:15.879Z,7.00
2023-05-22T21:02:42.464Z,8.00
2023-05-22T21:05:08.996Z,10.00
2023-05-22T21:07:35.590Z,10.00
2023-05-22T21:10:02.077Z,9.00
2023-05-22T21:12:31.360Z,8.33
2023-05-22T21:14:59.690Z,8.40
2023-05-22T21:17:26.270Z,9.50
2023-05-22T21:19:53.749Z,7.75
2023-05-22T21:22:22.219Z,8.80
2023-05-22T21:24:48.861Z,10.00
2023-05-22T21:27:15.358Z,9.00
2023-05-22T21:29:41.879Z,9.00
2023-05-22T21:32:11.229Z,9.00
2023-05-22T21:34:39.570Z,9.60
2023-05-22T21:37:06.115Z,11.00
2023-05-22T21:39:33.391Z,10.00
2023-05-22T21:41:59.840Z,8.50
2023-05-22T21:44:26.316Z,10.00
2023-05-22T21:46:54.713Z,8.40
2023-05-22T21:49:21.264Z,22.00
2023-05-22T21:51:47.789Z,19.00
2023-05-22T21:54:15.265Z,22.00
2023-05-22T21:59:25.943Z,19.00
2023-05-22T22:01:53.437Z,15.33
2023-05-22T22:04:20.944Z,15.67
2023-05-22T22:06:48.241Z,13.00
2023-05-22T22:09:14.754Z,12.50
2023-05-22T22:14:26.155Z,12.33
2023-05-22T22:16:53.622Z,14.00
2023-05-22T22:19:21.115Z,13.00
2023-05-22T22:21:47.744Z,14.00
2023-05-22T22:24:14.231Z,15.00
2023-05-22T22:29:26.206Z,12.33
2023-05-22T22:31:52.737Z,13.00
2023-05-22T22:34:20.259Z,12.00
2023-05-22T22:36:47.622Z,13.00
2023-05-22T22:39:14.132Z,13.00
2023-05-22T22:44:25.811Z,16.00
2023-05-22T22:46:53.172Z,13.00
2023-05-22T22:49:20.539Z,12.67
2023-05-22T22:51:47.858Z,12.00
2023-05-22T22:54:14.405Z,10.00
2023-05-22T22:59:24.927Z,13.00
2023-05-22T23:01:51.547Z,11.50
2023-05-22T23:04:19.096Z,12.67
2023-05-22T23:06:46.562Z,13.33
2023-05-22T23:09:13.988Z,14.33
2023-05-22T23:14:25.523Z,12.50
2023-05-22T23:16:52.894Z,11.33
2023-05-22T23:19:20.303Z,11.67
2023-05-22T23:21:47.698Z,12.67
2023-05-22T23:24:14.180Z,12.00
2023-05-22T23:29:24.639Z,11.00
2023-05-22T23:31:51.199Z,12.00
2023-05-22T23:34:18.593Z,11.33
2023-05-22T23:36:45.892Z,11.33
2023-05-22T23:39:13.265Z,10.67
2023-05-22T23:44:34.503Z,12.00
2023-05-22T23:47:01.118Z,14.00
2023-05-22T23:49:28.590Z,15.67
2023-05-22T23:51:56.005Z,12.67
2023-05-22T23:54:22.487Z,11.00
2023-05-22T23:59:34.127Z,14.00
